Time;durP1;ratioP1;P1;durP2;ratioP2;P2;SDS_P1;SDS_P2;PMS_P1;PMS_P2;Temp;Humidity;BMP_temperature;BMP_pressure;BME280_temperature;BME280_humidity;BME280_pressure;Samples;Min_cycle;Max_cycle;Signal;HPM_P1;HPM_P2
2022/01/20 00:01:50;;;;;;;9.98;7.40;;;4.70;99.90;;;;;;5058860;28;20224;-68
2022/01/20 00:04:44;;;;;;;11.48;9.63;;;4.70;99.90;;;;;;5063735;28;20220;-69
2022/01/20 00:07:36;;;;;;;9.45;7.13;;;4.70;99.90;;;;;;5063750;28;20809;-68
2022/01/20 00:26:00;;;;;;;11.65;7.60;;;4.70;99.90;;;;;;5053318;28;20567;-73
2022/01/20 00:28:48;;;;;;;9.68;7.80;;;4.90;99.90;;;;;;5049682;28;20399;-73
2022/01/20 00:31:44;;;;;;;11.75;8.68;;;4.90;99.90;;;;;;5059746;28;20225;-73
2022/01/20 00:34:53;;;;;;;13.75;8.73;;;5.00;99.90;;;;;;5029842;28;20229;-73
2022/01/20 00:37:38;;;;;;;12.57;9.32;;;5.00;99.90;;;;;;5026660;28;20263;-73
2022/01/20 00:40:24;;;;;;;9.38;7.78;;;4.90;99.90;;;;;;5032350;28;20217;-73
2022/01/20 00:43:10;;;;;;;8.77;7.28;;;4.90;99.90;;;;;;5034108;28;20717;-73
2022/01/20 00:45:55;;;;;;;10.20;8.00;;;5.00;99.90;;;;;;5034079;28;20701;-73
2022/01/20 00:48:41;;;;;;;11.98;8.20;;;5.00;99.90;;;;;;5020454;28;20296;-73
2022/01/20 00:51:26;;;;;;;8.90;6.93;;;5.00;99.90;;;;;;5025808;28;20649;-73
2022/01/20 00:54:14;;;;;;;11.60;6.90;;;5.00;99.90;;;;;;5028477;28;20256;-73
2022/01/20 00:56:59;;;;;;;10.40;7.80;;;5.00;99.90;;;;;;5029162;28;20209;-74
2022/01/20 00:59:45;;;;;;;10.43;7.85;;;5.00;99.90;;;;;;5038180;28;20263;-73
2022/01/20 01:02:30;;;;;;;11.68;8.45;;;5.00;99.90;;;;;;5040127;28;20356;-73
2022/01/20 01:05:16;;;;;;;10.13;7.40;;;4.90;99.90;;;;;;5028672;28;20206;-73
2022/01/20 01:08:02;;;;;;;9.60;7.37;;;5.00;99.90;;;;;;5029620;28;20205;-73
2022/01/20 01:10:50;;;;;;;9.85;7.30;;;5.00;99.90;;;;;;5040066;28;20448;-73
2022/01/20 01:13:36;;;;;;;10.25;7.55;;;4.90;99.90;;;;;;5038262;28;20365;-73
2022/01/20 01:16:25;;;;;;;9.52;7.43;;;5.00;99.90;;;;;;5038481;28;20764;-73
2022/01/20 01:22:29;;;;;;;8.40;7.28;;;5.00;99.90;;;;;;5033607;28;20220;-73
2022/01/20 01:25:15;;;;;;;13.77;8.00;;;5.00;99.90;;;;;;5039521;28;20317;-73
2022/01/20 01:28:03;;;;;;;9.50;7.22;;;5.00;99.90;;;;;;5028063;28;20201;-73
2022/01/20 01:31:12;;;;;;;10.38;7.45;;;5.10;99.90;;;;;;5027085;28;20487;-73
2022/01/20 01:34:01;;;;;;;11.35;7.95;;;5.10;99.90;;;;;;5038341;28;20208;-73
2022/01/20 01:36:51;;;;;;;8.88;6.78;;;5.10;99.90;;;;;;5028894;28;20221;-73
2022/01/20 01:39:37;;;;;;;9.45;6.85;;;5.10;99.90;;;;;;5029151;28;20229;-73
2022/01/20 01:42:29;;;;;;;8.48;6.70;;;5.10;99.90;;;;;;5029165;28;20702;-73
2022/01/20 01:45:18;;;;;;;8.45;6.60;;;5.10;99.90;;;;;;5028770;28;20203;-72
2022/01/20 01:48:05;;;;;;;9.05;6.95;;;5.20;99.90;;;;;;5030698;28;20255;-73
2022/01/20 01:50:51;;;;;;;10.65;7.78;;;5.20;99.90;;;;;;5030585;28;20256;-73
2022/01/20 01:53:38;;;;;;;7.00;6.30;;;5.30;99.90;;;;;;5030470;28;20794;-73
2022/01/20 01:56:23;;;;;;;9.48;7.18;;;5.30;99.90;;;;;;5027909;28;20205;-73
2022/01/20 01:59:09;;;;;;;9.15;7.38;;;5.20;99.90;;;;;;5033879;28;20693;-73
2022/01/20 02:01:56;;;;;;;12.60;7.65;;;5.30;99.90;;;;;;5037755;28;20776;-74
2022/01/20 02:04:42;;;;;;;9.07;6.55;;;5.30;99.90;;;;;;5025922;28;20337;-74
2022/01/20 02:07:59;;;;;;;7.68;6.88;;;5.30;99.90;;;;;;5027957;28;20259;-73
2022/01/20 02:19:56;;;;;;;9.18;7.00;;;5.30;99.90;;;;;;5026752;28;20201;-74
2022/01/20 02:22:42;;;;;;;8.43;6.22;;;5.20;99.90;;;;;;5027256;28;20253;-73
2022/01/20 02:25:30;;;;;;;8.13;5.97;;;5.30;99.90;;;;;;5029471;28;20265;-74
2022/01/20 02:28:15;;;;;;;7.68;6.10;;;5.30;99.90;;;;;;5033690;28;20271;-74
2022/01/20 02:31:01;;;;;;;8.00;6.43;;;5.30;99.90;;;;;;5039332;28;20252;-73
2022/01/20 02:33:46;;;;;;;9.02;5.70;;;5.40;99.90;;;;;;5029854;28;20607;-73
2022/01/20 02:36:35;;;;;;;11.77;6.50;;;5.40;99.90;;;;;;5029115;28;20204;-73
2022/01/20 02:39:44;;;;;;;9.43;5.55;;;5.30;99.90;;;;;;5033742;28;20328;-73
2022/01/20 02:45:33;;;;;;;7.72;6.00;;;5.30;99.90;;;;;;5026458;28;20232;-74
2022/01/20 02:48:19;;;;;;;8.93;6.55;;;5.40;99.90;;;;;;5030156;28;20201;-73
2022/01/20 02:51:05;;;;;;;7.70;6.25;;;5.30;99.90;;;;;;5041231;28;20677;-74
2022/01/20 02:53:52;;;;;;;7.60;6.10;;;5.30;99.90;;;;;;5039223;28;20323;-74
2022/01/20 02:56:38;;;;;;;10.98;6.80;;;5.30;99.90;;;;;;5027524;28;21038;-73
2022/01/20 02:59:23;;;;;;;9.80;7.22;;;5.30;99.90;;;;;;5021811;28;20209;-73
2022/01/20 03:02:09;;;;;;;7.22;6.00;;;5.30;99.90;;;;;;5032192;28;20225;-73
2022/01/20 03:04:55;;;;;;;7.72;6.65;;;5.30;99.90;;;;;;5026004;28;20198;-74
2022/01/20 03:07:41;;;;;;;9.35;6.50;;;5.30;99.90;;;;;;5024617;28;20206;-74
2022/01/20 03:10:28;;;;;;;8.55;6.40;;;5.30;99.90;;;;;;5029771;28;20333;-73
2022/01/20 03:13:14;;;;;;;8.07;6.22;;;5.30;99.90;;;;;;5040070;28;20241;-74
2022/01/20 03:16:00;;;;;;;6.97;6.28;;;5.30;99.90;;;;;;5020354;28;20687;-73
2022/01/20 03:18:45;;;;;;;8.27;7.00;;;5.30;99.90;;;;;;5036832;28;20279;-73
2022/01/20 03:21:31;;;;;;;9.95;7.30;;;5.30;99.90;;;;;;5028866;28;20212;-73
2022/01/20 03:24:17;;;;;;;8.50;6.93;;;5.20;99.90;;;;;;5037374;28;20336;-73
2022/01/20 03:27:04;;;;;;;8.25;6.43;;;5.20;99.90;;;;;;5027748;28;20600;-74
2022/01/20 03:29:50;;;;;;;8.13;6.47;;;5.20;99.90;;;;;;5025732;28;20209;-73
2022/01/20 03:32:36;;;;;;;10.43;7.20;;;5.20;99.90;;;;;;5029008;28;20276;-74
2022/01/20 03:35:23;;;;;;;9.52;6.78;;;5.20;99.90;;;;;;5022678;28;20224;-73
2022/01/20 03:38:10;;;;;;;8.60;7.22;;;5.20;99.90;;;;;;5036532;28;20209;-73
2022/01/20 03:40:55;;;;;;;10.68;8.00;;;5.30;99.90;;;;;;5038680;28;20209;-73
2022/01/20 03:43:42;;;;;;;11.05;7.97;;;5.20;99.90;;;;;;5028071;28;20233;-73
2022/01/20 03:46:28;;;;;;;10.73;8.10;;;5.30;99.90;;;;;;5033422;28;20682;-73
2022/01/20 03:49:26;;;;;;;9.25;7.32;;;5.20;99.90;;;;;;5036790;28;20205;-73
2022/01/20 03:52:11;;;;;;;8.35;7.28;;;5.20;99.90;;;;;;5039338;28;20341;-73
2022/01/20 03:54:57;;;;;;;7.88;6.72;;;5.20;99.90;;;;;;5034995;28;20233;-73
2022/01/20 03:57:42;;;;;;;9.60;7.90;;;5.30;99.90;;;;;;5032526;28;20328;-73
2022/01/20 04:00:30;;;;;;;11.80;8.88;;;5.30;99.90;;;;;;5028503;28;20218;-73
2022/01/20 04:03:17;;;;;;;12.23;8.98;;;5.30;99.90;;;;;;5035197;28;20225;-73
2022/01/20 04:06:03;;;;;;;12.20;7.57;;;5.30;99.90;;;;;;5025573;28;20201;-73
2022/01/20 04:08:50;;;;;;;7.75;6.90;;;5.20;99.90;;;;;;5025653;28;20682;-73
2022/01/20 04:11:35;;;;;;;8.93;6.63;;;5.20;99.90;;;;;;5033677;28;20216;-73
2022/01/20 04:14:23;;;;;;;9.20;7.43;;;5.20;99.90;;;;;;5034684;28;20739;-73
2022/01/20 04:17:16;;;;;;;11.48;8.20;;;5.30;99.90;;;;;;5032539;28;20575;-74
2022/01/20 04:20:03;;;;;;;11.55;8.35;;;5.20;99.90;;;;;;5031204;28;20870;-73
2022/01/20 04:22:48;;;;;;;9.77;7.65;;;5.30;99.90;;;;;;5030128;28;20232;-73
2022/01/20 04:25:34;;;;;;;12.25;7.50;;;5.30;99.90;;;;;;5027345;28;20200;-74
2022/01/20 04:28:19;;;;;;;10.60;7.90;;;5.30;99.90;;;;;;5022653;28;20210;-74
2022/01/20 04:31:05;;;;;;;11.63;9.23;;;5.30;99.90;;;;;;5032644;28;20690;-74
2022/01/20 04:33:52;;;;;;;9.48;8.05;;;5.20;99.90;;;;;;5033162;28;20348;-74
2022/01/20 04:36:41;;;;;;;11.03;8.17;;;5.20;99.90;;;;;;5027658;28;20204;-73
2022/01/20 04:39:31;;;;;;;10.15;7.10;;;5.10;99.90;;;;;;5032362;28;20444;-73
2022/01/20 04:42:18;;;;;;;9.63;7.65;;;5.10;99.90;;;;;;5031185;28;20369;-73
2022/01/20 04:45:09;;;;;;;9.38;6.88;;;5.20;99.90;;;;;;5028965;28;20683;-73
2022/01/20 04:48:02;;;;;;;12.30;8.70;;;5.20;99.90;;;;;;5026696;28;20448;-73
2022/01/20 04:57:14;;;;;;;8.90;7.70;;;5.10;99.90;;;;;;5032509;28;20209;-73
2022/01/20 05:00:00;;;;;;;12.65;7.75;;;5.10;99.90;;;;;;5031128;28;20337;-73
2022/01/20 05:02:45;;;;;;;12.52;7.78;;;5.00;99.90;;;;;;5034516;28;20422;-73
2022/01/20 05:05:31;;;;;;;12.73;7.93;;;4.90;99.90;;;;;;5030239;28;20583;-73
2022/01/20 05:08:22;;;;;;;11.30;7.72;;;4.90;99.90;;;;;;5035694;28;20658;-73
2022/01/20 05:11:09;;;;;;;13.75;8.52;;;4.90;99.90;;;;;;5038090;28;21260;-73
2022/01/20 05:13:55;;;;;;;8.75;7.10;;;4.90;99.90;;;;;;5026033;28;20226;-73
2022/01/20 05:16:41;;;;;;;16.20;7.78;;;4.90;99.90;;;;;;5036653;28;20205;-73
2022/01/20 05:19:28;;;;;;;10.48;7.53;;;5.00;99.90;;;;;;5038451;28;20336;-73
2022/01/20 05:22:14;;;;;;;9.30;7.45;;;5.00;99.90;;;;;;5032272;28;20236;-73
2022/01/20 05:25:02;;;;;;;10.35;7.32;;;4.90;99.90;;;;;;5034154;28;20228;-73
2022/01/20 05:27:48;;;;;;;12.15;8.40;;;4.90;99.90;;;;;;5036309;28;20569;-73
2022/01/20 05:30:34;;;;;;;13.50;7.28;;;4.90;99.90;;;;;;5030667;28;20629;-74
2022/01/20 05:33:19;;;;;;;12.57;7.25;;;4.90;99.90;;;;;;5024711;28;20225;-73
2022/01/20 05:36:06;;;;;;;11.75;7.13;;;4.80;99.90;;;;;;5037261;28;20226;-73
2022/01/20 05:38:51;;;;;;;18.48;6.78;;;4.90;99.90;;;;;;5033193;28;20428;-73
2022/01/20 05:41:38;;;;;;;9.38;7.30;;;4.80;99.90;;;;;;5027616;28;20573;-72
2022/01/20 05:44:24;;;;;;;8.88;7.55;;;4.90;99.90;;;;;;5044786;28;20220;-73
2022/01/20 05:47:11;;;;;;;11.05;6.85;;;4.80;99.90;;;;;;5033310;28;20202;-73
2022/01/20 05:49:57;;;;;;;8.10;6.93;;;4.70;99.90;;;;;;5032847;28;20703;-73
2022/01/20 05:52:43;;;;;;;17.52;10.63;;;4.70;99.90;;;;;;5032217;28;20706;-73
2022/01/20 05:55:29;;;;;;;15.38;10.93;;;4.60;99.90;;;;;;5030032;28;20355;-74
2022/01/20 05:58:16;;;;;;;10.15;8.15;;;4.60;99.90;;;;;;5040197;28;20252;-73
2022/01/20 06:01:02;;;;;;;13.90;8.68;;;4.60;99.90;;;;;;5033044;28;20576;-74
2022/01/20 06:03:48;;;;;;;15.90;8.20;;;4.70;99.90;;;;;;5036582;28;20225;-73
2022/01/20 06:06:35;;;;;;;11.82;7.97;;;4.60;99.90;;;;;;5034291;28;20717;-73
2022/01/20 06:09:20;;;;;;;11.68;6.80;;;4.60;99.90;;;;;;5031712;28;20236;-73
2022/01/20 06:12:06;;;;;;;11.82;7.72;;;4.70;99.90;;;;;;5028894;28;20249;-73
2022/01/20 06:14:53;;;;;;;16.83;8.40;;;4.70;99.90;;;;;;5035107;28;20372;-73
2022/01/20 06:17:39;;;;;;;11.93;7.70;;;4.80;99.90;;;;;;5031385;28;20220;-73
2022/01/20 06:20:25;;;;;;;18.02;8.68;;;4.80;99.90;;;;;;5028742;28;20324;-73
2022/01/20 06:23:11;;;;;;;9.88;7.65;;;4.80;99.90;;;;;;5034252;28;20624;-75
2022/01/20 06:25:57;;;;;;;9.50;6.60;;;4.90;99.90;;;;;;5038343;28;20202;-74
2022/01/20 06:28:43;;;;;;;12.18;7.43;;;4.90;99.90;;;;;;5036506;28;20216;-74
2022/01/20 06:31:30;;;;;;;11.80;7.05;;;4.90;99.90;;;;;;5026526;28;20689;-73
2022/01/20 06:34:16;;;;;;;9.98;7.13;;;4.80;99.90;;;;;;5025804;28;20208;-74
2022/01/20 06:37:01;;;;;;;12.00;6.65;;;4.80;99.90;;;;;;5028003;28;20194;-73
2022/01/20 06:39:47;;;;;;;7.85;6.18;;;4.80;99.90;;;;;;5029275;28;20198;-74
2022/01/20 06:42:32;;;;;;;13.13;6.47;;;4.90;99.90;;;;;;5034944;28;20236;-73
2022/01/20 06:45:20;;;;;;;11.45;7.20;;;4.90;99.90;;;;;;5027438;28;20878;-75
2022/01/20 06:48:07;;;;;;;12.77;7.57;;;4.80;99.90;;;;;;5031317;28;20284;-74
2022/01/20 06:50:52;;;;;;;17.55;7.82;;;4.80;99.90;;;;;;5036041;28;20237;-72
2022/01/20 06:53:38;;;;;;;12.63;7.50;;;4.80;99.90;;;;;;5022472;28;20224;-74
2022/01/20 06:56:24;;;;;;;14.23;6.00;;;4.80;99.90;;;;;;5024771;28;20316;-74
2022/01/20 06:59:10;;;;;;;16.42;6.60;;;4.80;99.90;;;;;;5030591;28;20577;-74
2022/01/20 07:01:56;;;;;;;14.25;6.75;;;4.70;99.90;;;;;;5024230;28;20241;-74
2022/01/20 07:04:44;;;;;;;12.77;6.70;;;4.60;99.90;;;;;;5028776;28;20209;-74
2022/01/20 07:07:30;;;;;;;16.70;7.85;;;4.60;99.90;;;;;;5034905;28;20229;-74
2022/01/20 07:10:18;;;;;;;12.40;7.28;;;4.60;99.90;;;;;;5041210;28;20278;-73
2022/01/20 07:13:04;;;;;;;16.73;7.80;;;4.70;99.90;;;;;;5027605;28;20240;-73
2022/01/20 07:15:50;;;;;;;13.27;7.70;;;4.70;99.90;;;;;;5035179;28;20757;-74
2022/01/20 07:18:36;;;;;;;12.93;7.93;;;4.60;99.90;;;;;;5025368;28;20209;-74
2022/01/20 07:21:23;;;;;;;14.27;8.45;;;4.70;99.90;;;;;;5023339;28;20241;-75
2022/01/20 07:24:08;;;;;;;12.82;6.97;;;4.70;99.90;;;;;;5029717;28;20530;-74
2022/01/20 07:26:54;;;;;;;13.57;6.72;;;4.80;99.90;;;;;;5027489;28;20337;-74
2022/01/20 07:29:39;;;;;;;18.30;7.55;;;4.70;99.90;;;;;;5031331;28;20280;-75
2022/01/20 07:32:25;;;;;;;12.63;6.47;;;4.80;99.90;;;;;;5022326;28;20224;-74
2022/01/20 07:35:11;;;;;;;12.98;7.63;;;4.80;99.90;;;;;;5036424;28;20221;-74
2022/01/20 07:37:58;;;;;;;13.02;7.00;;;4.80;99.90;;;;;;5025178;28;20201;-74
2022/01/20 07:40:44;;;;;;;15.93;6.57;;;4.80;99.90;;;;;;5024466;28;20204;-75
2022/01/20 07:43:29;;;;;;;15.23;6.40;;;4.70;99.90;;;;;;5022637;28;20233;-74
2022/01/20 07:46:15;;;;;;;10.60;6.32;;;4.70;99.90;;;;;;5038138;28;20197;-75
2022/01/20 07:49:01;;;;;;;22.13;8.57;;;4.70;99.90;;;;;;5027696;28;20200;-74
2022/01/20 07:51:46;;;;;;;21.52;8.25;;;4.80;99.90;;;;;;5024562;28;20210;-73
2022/01/20 07:54:33;;;;;;;17.95;8.00;;;4.80;99.90;;;;;;5032624;28;20224;-74
2022/01/20 07:57:19;;;;;;;12.52;6.88;;;4.80;99.90;;;;;;5020861;28;20590;-74
2022/01/20 08:00:07;;;;;;;11.75;7.40;;;4.80;99.90;;;;;;5031390;28;20943;-74
2022/01/20 08:02:53;;;;;;;18.25;8.13;;;4.80;99.90;;;;;;5040430;28;20224;-74
2022/01/20 08:05:38;;;;;;;14.65;6.82;;;4.80;99.90;;;;;;5034143;28;20568;-74
2022/01/20 08:08:24;;;;;;;16.90;6.20;;;4.80;99.90;;;;;;5014782;28;20301;-75
2022/01/20 08:11:10;;;;;;;13.88;7.30;;;4.90;99.90;;;;;;5015903;28;20293;-73
2022/01/20 08:13:56;;;;;;;10.63;6.00;;;4.80;99.90;;;;;;5023078;28;20356;-74
2022/01/20 08:16:43;;;;;;;12.02;6.88;;;4.70;99.90;;;;;;5023582;28;20226;-74
2022/01/20 08:19:28;;;;;;;18.35;8.02;;;4.80;99.90;;;;;;5036755;28;20210;-72
2022/01/20 08:22:14;;;;;;;21.60;6.57;;;4.80;99.90;;;;;;5026616;28;20237;-75
2022/01/20 08:25:00;;;;;;;12.27;6.38;;;4.90;99.90;;;;;;5033869;28;20197;-74
2022/01/20 08:27:48;;;;;;;20.63;7.20;;;4.90;99.90;;;;;;5030871;28;20639;-74
2022/01/20 08:30:34;;;;;;;14.98;6.75;;;4.90;99.90;;;;;;5032065;28;20228;-74
2022/01/20 08:33:20;;;;;;;17.17;6.63;;;4.90;99.90;;;;;;5036798;28;20224;-74
2022/01/20 08:36:06;;;;;;;17.02;5.95;;;5.00;99.90;;;;;;5033825;28;20245;-74
2022/01/20 08:38:52;;;;;;;16.17;7.63;;;5.00;99.90;;;;;;5024744;28;20280;-74
2022/01/20 08:41:38;;;;;;;10.45;5.20;;;5.00;99.90;;;;;;5036395;28;20497;-75
2022/01/20 08:44:25;;;;;;;10.10;6.32;;;5.00;99.90;;;;;;5039284;28;20201;-74
2022/01/20 08:47:16;;;;;;;10.38;6.05;;;5.10;99.90;;;;;;5031519;28;20198;-74
2022/01/20 08:50:03;;;;;;;22.08;5.70;;;5.10;99.90;;;;;;5020309;28;20262;-75
2022/01/20 08:52:49;;;;;;;9.00;6.05;;;5.10;99.90;;;;;;5026410;28;20296;-73
2022/01/20 08:55:35;;;;;;;10.63;5.68;;;5.10;99.90;;;;;;5028200;28;20813;-74
2022/01/20 08:58:21;;;;;;;23.55;6.35;;;5.20;99.90;;;;;;5041316;28;20213;-75
2022/01/20 09:01:08;;;;;;;15.93;5.00;;;5.10;99.90;;;;;;5030662;28;20229;-75
2022/01/20 09:03:53;;;;;;;22.13;5.47;;;5.10;99.90;;;;;;5031150;28;20249;-75
2022/01/20 09:06:38;;;;;;;9.98;4.57;;;5.10;99.90;;;;;;5030769;28;20196;-74
2022/01/20 09:09:24;;;;;;;12.48;4.88;;;5.20;99.90;;;;;;5033361;28;20813;-73
2022/01/20 09:15:27;;;;;;;14.15;5.10;;;5.20;99.90;;;;;;5030093;28;20216;-72
2022/01/20 09:15:29;;;;;;;13.15;4.20;;;5.20;99.90;;;;;;5033818;28;20235;-72
2022/01/20 09:18:18;;;;;;;16.00;3.85;;;5.30;99.90;;;;;;5023854;28;20197;-73
2022/01/20 09:21:04;;;;;;;10.32;4.50;;;5.30;99.90;;;;;;5029470;28;20217;-71
2022/01/20 09:23:49;;;;;;;14.40;4.30;;;5.40;99.90;;;;;;5044997;28;20236;-71
2022/01/20 09:26:35;;;;;;;14.13;4.97;;;5.50;99.90;;;;;;5025156;28;20730;-71
2022/01/20 09:29:21;;;;;;;13.38;4.68;;;5.50;99.90;;;;;;5033249;28;20200;-72
2022/01/20 09:32:09;;;;;;;11.57;4.97;;;5.50;99.90;;;;;;5036645;28;20224;-72
2022/01/20 09:34:56;;;;;;;13.00;4.90;;;5.50;99.90;;;;;;5029840;28;20449;-71
2022/01/20 09:37:42;;;;;;;12.55;3.30;;;5.60;99.90;;;;;;5023799;28;20263;-72
2022/01/20 09:40:30;;;;;;;15.40;4.78;;;5.50;99.90;;;;;;5038964;28;20197;-71
2022/01/20 09:43:16;;;;;;;11.35;3.63;;;5.50;99.90;;;;;;5029002;28;20701;-71
2022/01/20 09:46:03;;;;;;;13.13;4.25;;;5.40;99.90;;;;;;5040278;28;20200;-71
2022/01/20 09:48:49;;;;;;;14.40;4.00;;;5.20;99.90;;;;;;5021542;28;20718;-73
2022/01/20 09:51:36;;;;;;;17.02;3.85;;;5.20;99.90;;;;;;5031916;28;20213;-73
2022/01/20 09:54:21;;;;;;;11.75;3.70;;;5.20;99.90;;;;;;5027709;28;20220;-73
2022/01/20 09:57:07;;;;;;;14.75;4.60;;;5.20;99.90;;;;;;5015274;28;20221;-73
2022/01/20 09:59:53;;;;;;;13.40;3.08;;;5.10;99.90;;;;;;5013728;28;20288;-73
2022/01/20 10:02:58;;;;;;;8.88;3.35;;;5.00;99.90;;;;;;5026163;28;20236;-72
2022/01/20 10:05:45;;;;;;;13.25;3.97;;;4.70;99.90;;;;;;5040351;28;20224;-75
2022/01/20 10:08:35;;;;;;;9.45;3.00;;;4.60;99.90;;;;;;5033704;28;20213;-75
2022/01/20 10:11:21;;;;;;;8.63;2.95;;;4.60;99.90;;;;;;5028770;28;20586;-74
2022/01/20 10:14:08;;;;;;;5.10;2.30;;;4.60;99.90;;;;;;5031145;28;20205;-73
2022/01/20 10:16:54;;;;;;;15.85;3.30;;;4.70;99.90;;;;;;5026962;28;20706;-73
2022/01/20 10:19:42;;;;;;;9.10;2.50;;;4.70;99.90;;;;;;5028034;28;20682;-73
2022/01/20 10:22:28;;;;;;;11.43;2.45;;;4.90;99.90;;;;;;5017472;28;20301;-72
2022/01/20 10:25:17;;;;;;;6.82;2.42;;;4.90;99.90;;;;;;5025607;28;20248;-73
2022/01/20 10:28:02;;;;;;;8.63;1.90;;;5.10;99.90;;;;;;5026013;28;20244;-73
2022/01/20 10:30:48;;;;;;;8.02;2.20;;;5.20;99.90;;;;;;5026815;28;20213;-72
2022/01/20 10:33:40;;;;;;;7.53;2.50;;;5.30;99.90;;;;;;5022070;28;20303;-72
2022/01/20 10:36:26;;;;;;;6.80;2.50;;;5.40;99.90;;;;;;5033552;28;20765;-72
2022/01/20 10:39:12;;;;;;;15.07;2.53;;;5.40;99.90;;;;;;5036238;28;20205;-73
2022/01/20 10:42:01;;;;;;;5.70;2.50;;;5.50;99.90;;;;;;5016687;28;20225;-73
2022/01/20 10:44:50;;;;;;;9.60;2.90;;;5.60;99.90;;;;;;5027167;28;20809;-72
2022/01/20 10:47:39;;;;;;;5.63;2.55;;;5.60;99.90;;;;;;5023910;28;20539;-74
2022/01/20 10:50:27;;;;;;;8.30;2.40;;;5.70;99.90;;;;;;5029246;28;20210;-74
2022/01/20 10:53:20;;;;;;;11.27;3.45;;;5.80;99.90;;;;;;5029380;28;20476;-74
2022/01/20 10:56:07;;;;;;;12.10;3.05;;;5.80;99.90;;;;;;5031824;28;20205;-74
2022/01/20 10:58:55;;;;;;;7.68;2.45;;;5.80;99.90;;;;;;5028773;28;20210;-74
2022/01/20 11:01:40;;;;;;;9.23;2.33;;;5.80;99.90;;;;;;5031712;28;20205;-73
2022/01/20 11:04:26;;;;;;;12.57;2.80;;;5.70;99.90;;;;;;5033750;28;20287;-74
2022/01/20 11:07:12;;;;;;;14.63;3.15;;;5.70;99.90;;;;;;5041615;28;20578;-74
2022/01/20 11:10:03;;;;;;;9.18;3.45;;;5.70;99.90;;;;;;5031144;28;20186;-74
2022/01/20 11:12:49;;;;;;;8.73;2.65;;;5.60;99.90;;;;;;5031536;28;20268;-73
2022/01/20 11:15:37;;;;;;;6.90;2.58;;;5.70;99.90;;;;;;5031392;28;20207;-74
2022/01/20 11:18:27;;;;;;;9.15;3.05;;;5.80;99.90;;;;;;5027047;28;20248;-74
2022/01/20 11:21:23;;;;;;;16.08;3.63;;;5.60;99.90;;;;;;5020126;28;20202;-74
2022/01/20 11:24:17;;;;;;;7.65;2.95;;;5.70;99.90;;;;;;5015740;28;20206;-74
2022/01/20 11:27:06;;;;;;;10.10;2.20;;;5.80;99.90;;;;;;5016481;28;20264;-72
2022/01/20 11:29:55;;;;;;;14.23;3.33;;;5.80;99.90;;;;;;5026779;28;20453;-73
2022/01/20 11:32:45;;;;;;;8.18;2.55;;;5.80;99.90;;;;;;5033722;28;20730;-73
2022/01/20 11:35:39;;;;;;;6.83;2.17;;;5.90;99.90;;;;;;5037478;28;20347;-73
2022/01/20 11:38:38;;;;;;;11.38;3.95;;;6.00;99.90;;;;;;5028032;28;20441;-74
2022/01/20 11:41:34;;;;;;;16.00;3.22;;;6.00;99.90;;;;;;5030006;28;20662;-74
2022/01/20 11:44:26;;;;;;;9.57;2.80;;;5.90;99.90;;;;;;5027825;28;20205;-71
2022/01/20 11:47:12;;;;;;;14.70;2.92;;;6.00;99.90;;;;;;5023989;28;20575;-71
2022/01/20 11:49:59;;;;;;;8.65;2.55;;;5.90;99.90;;;;;;5040696;28;20267;-71
2022/01/20 11:52:45;;;;;;;27.83;3.13;;;5.90;99.90;;;;;;5026514;28;20249;-72
2022/01/20 11:55:31;;;;;;;10.95;2.45;;;5.90;99.90;;;;;;5032430;28;20296;-72
2022/01/20 11:58:20;;;;;;;5.05;2.38;;;5.90;99.90;;;;;;5023463;28;20377;-72
2022/01/20 12:01:08;;;;;;;7.82;2.88;;;5.90;99.90;;;;;;5031385;28;20296;-72
2022/01/20 12:03:54;;;;;;;15.80;2.72;;;5.80;99.90;;;;;;5029212;28;20296;-72
2022/01/20 12:06:45;;;;;;;10.32;2.20;;;5.70;99.90;;;;;;5036660;28;20196;-72
2022/01/20 12:09:34;;;;;;;9.82;2.30;;;5.70;99.90;;;;;;5015129;28;20326;-71
2022/01/20 12:12:24;;;;;;;10.48;2.15;;;5.70;99.90;;;;;;5041373;28;20570;-72
2022/01/20 12:15:12;;;;;;;10.27;1.70;;;5.80;99.90;;;;;;5046471;28;20593;-72
2022/01/20 12:17:58;;;;;;;6.93;2.00;;;5.70;99.90;;;;;;5039375;28;20212;-72
2022/01/20 12:20:45;;;;;;;4.45;2.38;;;5.70;99.90;;;;;;5040791;28;20745;-72
2022/01/20 12:23:41;;;;;;;7.05;2.17;;;5.60;99.90;;;;;;5074228;22;20267;-67
2022/01/20 12:26:27;;;;;;;5.22;1.90;;;5.50;99.90;;;;;;5071823;28;20204;-67
2022/01/20 12:29:13;;;;;;;6.30;1.98;;;5.50;99.90;;;;;;5070682;28;20704;-67
2022/01/20 12:32:00;;;;;;;5.35;1.90;;;5.50;99.90;;;;;;5070467;28;20200;-67
2022/01/20 12:34:56;;;;;;;7.70;2.30;;;5.50;99.90;;;;;;5047256;28;20314;-68
2022/01/20 12:37:42;;;;;;;6.05;1.92;;;5.60;99.90;;;;;;5052533;28;20251;-68
2022/01/20 12:40:29;;;;;;;8.20;3.58;;;5.40;99.90;;;;;;5051916;28;20263;-69
2022/01/20 12:43:14;;;;;;;5.80;2.00;;;5.30;99.90;;;;;;5051650;28;20248;-69
2022/01/20 12:46:01;;;;;;;6.32;1.92;;;5.30;99.90;;;;;;5046481;28;20201;-68
2022/01/20 12:48:55;;;;;;;15.82;2.10;;;5.20;99.90;;;;;;5052917;28;20670;-68
2022/01/20 12:51:42;;;;;;;7.47;2.05;;;5.20;99.90;;;;;;5047932;28;20205;-68
2022/01/20 12:54:30;;;;;;;9.27;2.33;;;5.30;99.90;;;;;;5048613;28;20229;-69
2022/01/20 12:57:18;;;;;;;6.65;2.03;;;5.30;99.90;;;;;;5052598;28;20220;-68
2022/01/20 13:00:08;;;;;;;6.90;2.13;;;5.40;99.90;;;;;;5051641;28;20205;-69
2022/01/20 13:02:54;;;;;;;4.68;1.70;;;5.40;99.90;;;;;;5047660;28;20725;-69
2022/01/20 13:05:42;;;;;;;4.90;1.70;;;5.50;99.90;;;;;;5049087;28;20208;-67
2022/01/20 13:08:32;;;;;;;5.25;1.42;;;5.50;99.90;;;;;;5046455;28;20560;-67
2022/01/20 13:11:19;;;;;;;5.68;1.95;;;5.40;99.90;;;;;;5052458;28;20264;-68
2022/01/20 13:14:06;;;;;;;4.25;2.05;;;5.40;99.90;;;;;;5053763;28;20240;-68
2022/01/20 13:16:53;;;;;;;8.98;1.95;;;5.40;99.90;;;;;;5051633;28;20708;-68
2022/01/20 13:19:43;;;;;;;5.35;1.60;;;5.40;99.90;;;;;;5036235;28;20263;-68
2022/01/20 13:22:38;;;;;;;6.22;2.15;;;5.30;99.90;;;;;;5047009;28;20228;-68
2022/01/20 13:25:26;;;;;;;6.72;2.30;;;5.30;99.90;;;;;;5043865;28;20571;-67
2022/01/20 13:28:14;;;;;;;8.57;2.30;;;5.30;99.90;;;;;;5053265;28;20614;-68
2022/01/20 13:31:14;;;;;;;4.57;2.25;;;5.30;99.90;;;;;;5038814;28;20205;-68
2022/01/20 13:34:06;;;;;;;9.00;2.28;;;5.30;99.90;;;;;;5053091;28;20302;-68
2022/01/20 13:36:54;;;;;;;6.75;2.67;;;5.40;99.90;;;;;;5051753;28;20201;-68
2022/01/20 13:39:41;;;;;;;7.10;2.20;;;5.30;99.90;;;;;;5040828;28;20204;-68
2022/01/20 13:42:38;;;;;;;11.30;2.30;;;5.40;99.90;;;;;;5052775;28;20255;-68
2022/01/20 13:45:23;;;;;;;11.02;2.72;;;5.40;99.90;;;;;;5048360;28;20575;-68
2022/01/20 13:48:12;;;;;;;7.57;3.03;;;5.40;99.90;;;;;;5051953;28;20250;-67
2022/01/20 13:51:00;;;;;;;15.25;2.60;;;5.30;99.90;;;;;;5049540;28;20212;-68
2022/01/20 13:53:56;;;;;;;10.35;2.60;;;5.30;99.90;;;;;;5043276;28;20224;-68
2022/01/20 13:56:51;;;;;;;2.72;1.50;;;5.30;99.90;;;;;;5047699;28;20553;-68
2022/01/20 13:59:51;;;;;;;3.63;1.50;;;5.10;99.90;;;;;;5051369;28;20220;-68
2022/01/20 14:02:37;;;;;;;5.55;1.63;;;4.80;99.90;;;;;;5038690;28;20220;-67
2022/01/20 14:05:27;;;;;;;5.60;1.73;;;4.80;99.90;;;;;;5045432;28;20283;-67
2022/01/20 14:08:14;;;;;;;6.75;1.38;;;4.70;99.90;;;;;;5048738;28;20188;-68
2022/01/20 14:11:00;;;;;;;4.65;1.33;;;4.70;99.90;;;;;;5043630;28;20333;-67
2022/01/20 14:13:45;;;;;;;3.17;1.05;;;4.50;99.90;;;;;;5047323;28;20351;-67
2022/01/20 14:16:33;;;;;;;5.25;2.13;;;4.40;99.90;;;;;;5045256;28;20211;-68
2022/01/20 14:19:23;;;;;;;3.50;1.38;;;4.20;99.90;;;;;;5051501;28;20328;-67
2022/01/20 14:22:10;;;;;;;6.20;1.33;;;4.10;99.90;;;;;;5049373;28;20205;-67
2022/01/20 14:24:56;;;;;;;4.72;1.52;;;4.10;99.90;;;;;;5044151;28;20282;-67
2022/01/20 14:27:42;;;;;;;5.10;1.50;;;4.20;99.90;;;;;;5050314;28;20200;-67
2022/01/20 14:30:31;;;;;;;3.15;0.93;;;4.30;99.90;;;;;;5048942;28;20283;-67
2022/01/20 14:33:16;;;;;;;3.45;1.20;;;4.40;99.90;;;;;;5048611;28;20295;-68
2022/01/20 14:36:02;;;;;;;2.95;1.00;;;4.60;99.90;;;;;;5046262;28;20686;-67
2022/01/20 14:38:49;;;;;;;3.72;1.23;;;4.70;99.90;;;;;;5047287;28;20311;-68
2022/01/20 14:41:35;;;;;;;3.47;1.05;;;4.60;99.90;;;;;;5050624;28;20340;-68
2022/01/20 14:44:20;;;;;;;5.97;1.23;;;4.70;99.90;;;;;;5048493;28;20295;-67
2022/01/20 14:47:07;;;;;;;7.03;1.48;;;4.80;99.90;;;;;;5042312;28;20345;-69
2022/01/20 14:49:54;;;;;;;3.78;1.10;;;4.80;99.90;;;;;;5040574;28;20201;-67
2022/01/20 14:52:40;;;;;;;2.30;0.80;;;4.80;99.90;;;;;;5049138;28;20585;-68
2022/01/20 14:55:27;;;;;;;2.00;1.20;;;4.80;99.90;;;;;;5048860;28;20331;-68
2022/01/20 14:58:13;;;;;;;7.95;1.42;;;4.80;99.90;;;;;;5042236;28;20701;-67
2022/01/20 15:00:59;;;;;;;3.67;1.33;;;4.90;99.90;;;;;;5039144;28;20202;-67
2022/01/20 15:03:44;;;;;;;4.75;1.30;;;4.90;99.90;;;;;;5048196;28;20336;-68
2022/01/20 15:06:31;;;;;;;13.32;2.08;;;4.90;99.90;;;;;;5046035;28;20291;-68
2022/01/20 15:09:17;;;;;;;6.82;2.08;;;5.00;99.90;;;;;;5046071;28;20234;-67
2022/01/20 15:12:07;;;;;;;7.50;1.52;;;4.90;99.90;;;;;;5049880;28;20204;-67
2022/01/20 15:14:53;;;;;;;6.70;2.27;;;4.90;99.90;;;;;;5046406;28;20205;-67
2022/01/20 15:17:39;;;;;;;8.25;1.77;;;4.90;99.90;;;;;;5041032;28;20478;-67